Tiempo atmosférico en la estación meteorológica de Ramales de la Victoria, Cantabria (80 m.)



Fecha
DESCASC
Temp. máxima en grados centígrados (hora)
DESCASC
Temp. mínima en grados centígrados (hora)
DESCASC
Temp. media en grados centígrados
DESCASC
Racha de viento máxima en m/sg (hora)
DESCASC
Velocidad máxima media en intervalos de 10 minutos(hora)
DESCASC
Precipitaciones diarias en mm
DESCASC
Precipitaciones de 00:00 a 06:00 en mm
DESCASC
Precipitaciones de 06:00 a 12:00 en mm
DESCASC
Precipitaciones de 12:00 a 18:00 en mm
DESCASC
Precipitaciones de 18:00 a 24:00 en mm
DESCASC
28-05-2020 34.5 (16:30) 12.1 (06:20) 23.3 5.83 (15:10) 2.5 (15:30) 0 0 0 0 0
27-05-2020 28.6 (16:20) 9.2 (06:40) 18.9 6.39 (15:10) 3.06 (15:10) 0 0 0 0 0
26-05-2020 26.2 (14:40) 8.3 (07:20) 17.3 6.94 (15:30) 3.33 (15:20) 0 0 0 0 0
25-05-2020 25.2 (14:50) 9.1 (07:10) 17.2 7.5 (17:10) 3.33 (15:50) 0 0 0 0 0
24-05-2020 22.5 (14:10) 7.9 (00:00) 15.2 6.67 (17:40) 2.78 (17:30) 0 0 0 0 0
23-05-2020 19 (18:10) 9.2 (00:00) 14.1 5.28 (06:30) 2.22 (05:50) 3.2 1 1.8 0.4 0
22-05-2020 25.5 (14:30) 12.4 (00:00) 18.9 6.39 (15:30) 3.33 (14:50) 0 0 0 0 0
21-05-2020 30.5 (16:00) 9.8 (00:00) 20.2 5.83 (00:40) 2.22 (17:40) 0 0 0 0 0
20-05-2020 31.1 (15:40) 8.5 (00:00) 19.8 5.83 (16:10) 2.78 (16:50) 0 0 0 0 0
19-05-2020 26.6 (15:20) 7.4 (00:00) 17 6.39 (16:50) 2.78 (17:10) 0 0 0 0 0
18-05-2020 24.8 (15:20) 5 (00:00) 14.9 6.11 (16:30) 2.78 (15:30) 0.2 0 0.2 0 0
17-05-2020 22.2 (15:50) 5.2 (00:00) 13.7 6.39 (15:20) 2.78 (15:20) 0 0 0 0 0
16-05-2020 17.8 (14:20) 9.7 (00:00) 13.7 5.28 (14:40) 2.5 (11:00) 0 0 0 0 0
15-05-2020 15.5 (16:20) 11.1 (00:00) 13.3 4.44 (17:40) 1.67 (17:10) 2.6 0 2.6 0 0
14-05-2020 16.2 (17:40) 12.2 (00:00) 14.2 5.83 (18:10) 2.22 (17:10) 1.2 0.2 0.4 0.2 0.4
13-05-2020 17.2 (15:10) 11.4 (00:00) 14.3 4.72 (14:20) 2.22 (14:20) 3.6 0.4 3.2 0 0
12-05-2020 14.4 (12:20) 10.6 (00:00) 12.5 3.89 (16:20) 1.67 (14:30) 0 0 0 0 0
11-05-2020 20.7 (16:10) 10.1 (00:00) 15.4 7.78 (17:20) 3.33 (12:30) 0.2 0 0.2 0 0
10-05-2020 16.9 (11:40) 12.5 (00:00) 14.7 7.78 (07:00) 3.89 (12:10) 25.6 0.6 21.6 2.6 0.8
09-05-2020 24.9 (13:50) 12.7 (00:00) 18.8 5.56 (14:30) 2.78 (14:30) 1.8 1.8 0 0 0
08-05-2020 28.4 (15:10) 15.9 (00:00) 22.1 10.83 (12:10) 6.39 (12:20) 9 0 3 0 6
07-05-2020 26.8 (17:10) 11.2 (00:00) 19 8.06 (22:10) 2.5 (16:50) 0.6 0 0 0 0.6
06-05-2020 26.8 (16:20) 8.4 (00:00) 17.6 5.83 (17:10) 2.78 (16:00) 0 0 0 0 0
05-05-2020 26.3 (15:10) 11.5 (00:00) 18.9 6.11 (15:20) 3.06 (13:10) 0 0 0 0 0
04-05-2020 32.6 (18:10) 11 (00:00) 21.8 16.11 (20:50) 8.33 (20:50) 0 0 0 0 0
03-05-2020 27.7 (16:00) 10.9 (00:00) 19.3 6.11 (16:10) 3.06 (17:20) 0 0 0 0 0
02-05-2020 25 (13:10) 14.1 (00:00) 19.6 6.11 (13:30) 2.78 (13:30) 0 0 0 0 0

Gráficas

Temp. máximas Temp. mínimas Temp. medias Precipitaciones Rachas de viento máximas Velocidades máximas media en intervalos de 10 minutos

Datos horarios

Fecha y hora oficial Temperatura (ºC) Velocidad del viento (km/h) Dirección del viento Racha (km/h) Dirección de racha Precipitación (mm) Presión (hPa) Tendencia (hPa) Humedad (%)
2020-05-31 23:00:00 19.5 2 Sur 4 Sudeste 0 -- -- 84
2020-05-31 22:00:00 21.3 4 Este 13 Sudeste 0 -- -- 77
2020-05-31 21:00:00 23 4 Sudeste 15 Nordeste 0 -- -- 71
2020-05-31 20:00:00 25.5 5 Nordeste 15 Nordeste 0 -- -- 66
2020-05-31 19:00:00 27.9 7 Nordeste 19 Nordeste 0 -- -- 63
2020-05-31 18:00:00 27.5 6 Nordeste 14 Este 0 -- -- 65
2020-05-31 17:00:00 24.5 4 Este 21 Nordeste 0 -- -- 76
2020-05-31 16:00:00 26 5 Este 17 Nordeste 0 -- -- 67
2020-05-31 15:00:00 28.1 3 Este 14 Este 0 -- -- 59
2020-05-31 14:00:00 26.2 9 Nordeste 18 Nordeste 0 -- -- 67
2020-05-31 13:00:00 26.6 5 Nordeste 14 Nordeste 0 -- -- 64
2020-05-31 12:00:00 26.1 7 Nordeste 17 Nordeste 0 -- -- 63
2020-05-31 11:00:00 24 4 Este 12 Nordeste 0 -- -- 69
2020-05-31 10:00:00 20.5 0 Calma 4 Norte 0 -- -- 77
2020-05-31 09:00:00 16.8 0 Calma 4 Oeste 0 -- -- 90
2020-05-31 08:00:00 14.3 0 Calma 4 Oeste 0 -- -- 97
2020-05-31 07:00:00 13.5 0 Calma 3 Oeste 0 -- -- 96
2020-05-31 06:00:00 13.8 0 Calma 4 Oeste 0 -- -- 96
2020-05-31 05:00:00 14 0 Calma 4 Oeste 0 -- -- 95
2020-05-31 04:00:00 14.4 0 Calma 4 Oeste 0 -- -- 94
2020-05-31 03:00:00 14.9 0 Calma 4 Sudoeste 0 -- -- 94
2020-05-31 02:00:00 15.2 3 Oeste 5 Oeste 0 -- -- 93
2020-05-31 01:00:00 16 2 Oeste 5 Oeste 0 -- -- 90
2020-05-31 00:00:00 17.2 0 Calma 3 Oeste 0 -- -- 87
2020-05-30 23:00:00 18.9 0 Calma 2 Sur 0 -- -- 80
2020-05-30 22:00:00 21.5 0 Calma 9 Sudeste 0 -- -- 71
2020-05-30 21:00:00 25.2 0 Calma 16 Nordeste 0 -- -- 59
2020-05-30 20:00:00 27.2 4 Este 19 Nordeste 0 -- -- 53
2020-05-30 19:00:00 28.5 9 Este 22 Este 0 -- -- 48
2020-05-30 18:00:00 29.2 8 Este 24 Norte 0 -- -- 48
2020-05-30 17:00:00 30.4 9 Este 23 Nordeste 0 -- -- 44
2020-05-30 16:00:00 30.6 10 Nordeste 22 Este 0 -- -- 45
2020-05-30 15:00:00 31 9 Nordeste 18 Nordeste 0 -- -- 40
2020-05-30 14:00:00 30.7 6 Nordeste 17 Nordeste 0 -- -- 37
2020-05-30 13:00:00 29.6 9 Nordeste 19 Nordeste 0 -- -- 38
2020-05-30 12:00:00 27.3 3 Nordeste 7 Nordeste 0 -- -- 46
2020-05-30 11:00:00 22.4 0 Calma 4 Noroeste 0 -- -- 61
2020-05-30 10:00:00 17.1 0 Calma 5 Este 0 -- -- 78
2020-05-30 09:00:00 13.4 0 Calma 4 Oeste 0 -- -- 92
2020-05-30 08:00:00 11.3 0 Calma 4 Oeste 0 -- -- 97
2020-05-30 07:00:00 10.4 0 Calma 3 Sudoeste 0 -- -- 96
2020-05-30 06:00:00 10.9 0 Calma 3 Oeste 0 -- -- 95
2020-05-30 05:00:00 11.5 0 Calma 4 Oeste 0 -- -- 95
2020-05-30 04:00:00 12 2 Oeste 4 Oeste 0 -- -- 94
2020-05-30 03:00:00 12.6 0 Calma 5 Oeste 0 -- -- 93
2020-05-30 02:00:00 13.1 2 Oeste 4 Oeste 0 -- -- 91
2020-05-30 01:00:00 14 0 Calma 4 Oeste 0 -- -- 89
2020-05-30 00:00:00 15.4 0 Calma 4 Oeste 0 -- -- 85
2020-05-29 23:00:00 17.5 0 Calma 3 Oeste 0 -- -- 77
2020-05-29 22:00:00 20.7 0 Calma 8 Sudeste 0 -- -- 70
2020-05-29 21:00:00 25.7 4 Sudeste 15 Nordeste 0 -- -- 55
2020-05-29 20:00:00 27.6 5 Este 20 Nordeste 0 -- -- 48
2020-05-29 19:00:00 28.1 8 Nordeste 23 Nordeste 0 -- -- 45
2020-05-29 18:00:00 28.9 9 Este 22 Nordeste 0 -- -- 48
2020-05-29 17:00:00 29.9 8 Nordeste 26 Nordeste 0 -- -- 45
2020-05-29 16:00:00 29.8 12 Nordeste 24 Nordeste 0 -- -- 41
2020-05-29 15:00:00 30.1 9 Nordeste 22 Nordeste 0 -- -- 40
2020-05-29 14:00:00 30.1 8 Nordeste 20 Este 0 -- -- 40
2020-05-29 13:00:00 30.1 5 Este 15 Nordeste 0 -- -- 44
2020-05-29 12:00:00 28.2 5 Este 13 Este 0 -- -- 50
2020-05-29 11:00:00 24 0 Calma 4 Nordeste 0 -- -- 51
2020-05-29 10:00:00 18.6 0 Calma 4 Noroeste 0 -- -- 75
2020-05-29 09:00:00 15.2 0 Calma 3 Oeste 0 -- -- 91
2020-05-29 08:00:00 12.9 0 Calma 4 Sudoeste 0 -- -- 97
2020-05-29 07:00:00 11.8 0 Calma 3 Oeste 0 -- -- 96
2020-05-29 06:00:00 12.4 0 Calma 3 Sudoeste 0 -- -- 95
2020-05-29 05:00:00 12.9 0 Calma 2 Sur 0 -- -- 94
2020-05-29 04:00:00 13.9 0 Calma 3 Sur 0 -- -- 94
2020-05-29 03:00:00 14.4 0 Calma 4 Sudoeste 0 -- -- 93
2020-05-29 02:00:00 15.2 0 Calma 4 Oeste 0 -- -- 91
2020-05-29 01:00:00 16.3 0 Calma 3 Sudoeste 0 -- -- 88
2020-05-29 00:00:00 17.7 0 Calma 3 Oeste 0 -- -- 85
2020-05-28 23:00:00 19.7 0 Calma 2 Oeste 0 -- -- 78
2020-05-28 22:00:00 22.8 0 Calma 3 Oeste 0 -- -- 69
2020-05-28 21:00:00 28.4 0 Calma 8 Sudeste 0 -- -- 51
2020-05-28 20:00:00 30.9 3 Sudeste 18 Nordeste 0 -- -- 44
2020-05-28 19:00:00 31.2 6 Nordeste 18 Norte 0 -- -- 39
2020-05-28 18:00:00 32.2 7 Nordeste 17 Nordeste 0 -- -- 36
2020-05-28 17:00:00 33.6 6 Nordeste 20 Este 0 -- -- 36
2020-05-28 16:00:00 33.8 6 Nordeste 21 Nordeste 0 -- -- 36
2020-05-28 15:00:00 33.7 6 Este 17 Este 0 -- -- 36
2020-05-28 14:00:00 32.9 5 Este 15 Sudeste 0 -- -- 36
2020-05-28 13:00:00 32 4 Este 13 Este 0 -- -- 38
2020-05-28 12:00:00 29.8 6 Este 18 Sudeste 0 -- -- 43
2020-05-28 11:00:00 25.6 5 Oeste 10 Oeste 0 -- -- 61
2020-05-28 10:00:00 19.9 4 Oeste 6 Oeste 0 -- -- 80
2020-05-28 09:00:00 15.3 0 Calma 4 Noroeste 0 -- -- 95
2020-05-28 08:00:00 13 0 Calma 3 Oeste 0 -- -- 98
2020-05-28 07:00:00 12.1 0 Calma 4 Oeste 0 -- -- 97
2020-05-28 06:00:00 12.4 0 Calma 4 Sudoeste 0 -- -- 96
2020-05-28 05:00:00 12.7 0 Calma 0 Calma 0 -- -- 95
2020-05-28 04:00:00 13.3 0 Calma 0 Calma 0 -- -- 95
2020-05-28 03:00:00 13.6 0 Calma 0 Calma 0 -- -- 94
2020-05-28 02:00:00 14.2 0 Calma 0 Calma 0 -- -- 93
2020-05-28 01:00:00 14.9 0 Calma 0 Calma 0 -- -- 90
2020-05-28 00:00:00 15.7 0 Calma 3 Oeste 0 -- -- 88
2020-05-27 23:00:00 17.2 0 Calma 3 Sur 0 -- -- 81
2020-05-27 22:00:00 20.1 0 Calma 3 Oeste 0 -- -- 71
2020-05-27 21:00:00 25.2 0 Calma 9 Este 0 -- -- 55
2020-05-27 20:00:00 26.5 5 Este 15 Este 0 -- -- 48
2020-05-27 19:00:00 27.5 6 Este 18 Nordeste 0 -- -- 48
2020-05-27 18:00:00 28.3 6 Este 21 Nordeste 0 -- -- 47
2020-05-27 17:00:00 28.4 6 Este 20 Este 0 -- -- 50
2020-05-27 16:00:00 28.5 9 Este 23 Nordeste 0 -- -- 47
2020-05-27 15:00:00 28.2 11 Nordeste 20 Este 0 -- -- 44
2020-05-27 14:00:00 28.1 6 Nordeste 17 Nordeste 0 -- -- 45
2020-05-27 13:00:00 27.3 6 Este 16 Nordeste 0 -- -- 48
2020-05-27 12:00:00 25.2 7 Nordeste 13 Nordeste 0 -- -- 55
2020-05-27 11:00:00 20.9 0 Calma 4 Oeste 0 -- -- 62
2020-05-27 10:00:00 15.6 0 Calma 4 Oeste 0 -- -- 82
2020-05-27 09:00:00 12.6 0 Calma 4 Oeste 0 -- -- 94
2020-05-27 08:00:00 10.1 0 Calma 4 Noroeste 0 -- -- 98
2020-05-27 07:00:00 9.2 0 Calma 4 Oeste 0 -- -- 97
2020-05-27 06:00:00 9.5 0 Calma 5 Sudoeste 0 -- -- 96
2020-05-27 05:00:00 10 2 Sudoeste 6 Sudoeste 0 -- -- 96
2020-05-27 04:00:00 10.5 3 Oeste 5 Oeste 0 -- -- 96
2020-05-27 03:00:00 11 3 Oeste 5 Sudoeste 0 -- -- 95
2020-05-27 02:00:00 11.6 2 Oeste 5 Oeste 0 -- -- 94
2020-05-27 01:00:00 12.3 3 Oeste 4 Oeste 0 -- -- 93
2020-05-27 00:00:00 13.3 0 Calma 5 Oeste 0 -- -- 91
2020-05-26 23:00:00 14.7 0 Calma 3 Oeste 0 -- -- 85
2020-05-26 22:00:00 17.7 0 Calma 9 Nordeste 0 -- -- 75
2020-05-26 21:00:00 21.8 4 Este 15 Este 0 -- -- 63
2020-05-26 20:00:00 23.6 7 Este 17 Nordeste 0 -- -- 60
2020-05-26 19:00:00 25.1 7 Este 20 Este 0 -- -- 54
2020-05-26 18:00:00 25.4 7 Este 21 Nordeste 0 -- -- 54
2020-05-26 17:00:00 25.4 10 Este 23 Este 0 -- -- 54
2020-05-26 16:00:00 25.8 9 Este 25 Este 0 -- -- 55
2020-05-26 15:00:00 26 8 Nordeste 24 Nordeste 0 -- -- 53
2020-05-26 14:00:00 25.6 8 Este 19 Este 0 -- -- 54
2020-05-26 13:00:00 24.7 7 Nordeste 18 Nordeste 0 -- -- 51
2020-05-26 12:00:00 23.4 6 Este 14 Nordeste 0 -- -- 56
2020-05-26 11:00:00 20.3 2 Nordeste 6 Nordeste 0 -- -- 60
2020-05-26 10:00:00 14.8 0 Calma 3 Norte 0 -- -- 80
2020-05-26 09:00:00 11.4 0 Calma 4 Nordeste 0 -- -- 95
2020-05-26 08:00:00 9.2 0 Calma 4 Norte 0 -- -- 98
2020-05-26 07:00:00 8.4 0 Calma 3 Sudoeste 0 -- -- 96
2020-05-26 06:00:00 9 0 Calma 3 Oeste 0 -- -- 96
2020-05-26 05:00:00 9.3 0 Calma 3 Sudoeste 0 -- -- 95
2020-05-26 04:00:00 10 0 Calma 4 Sudoeste 0 -- -- 96
2020-05-26 03:00:00 10.3 0 Calma 4 Oeste 0 -- -- 94
2020-05-26 02:00:00 11 0 Calma 4 Oeste 0 -- -- 93
2020-05-26 01:00:00 12.1 0 Calma 5 Sudoeste 0 -- -- 89
2020-05-26 00:00:00 13.6 0 Calma 5 Oeste 0 -- -- 84
2020-05-25 23:00:00 14.1 0 Calma 4 Oeste 0 -- -- 80
2020-05-25 22:00:00 16.1 0 Calma 10 Este 0 -- -- 71
2020-05-25 21:00:00 20 5 Nordeste 10 Este 0 -- -- 56
2020-05-25 20:00:00 20.5 6 Nordeste 21 Nordeste 0 -- -- 54
2020-05-25 19:00:00 22.4 7 Este 23 Nordeste 0 -- -- 55
2020-05-25 18:00:00 23 10 Este 27 Nordeste 0 -- -- 52
2020-05-25 17:00:00 24.4 10 Este 26 Este 0 -- -- 49
2020-05-25 16:00:00 23.7 10 Nordeste 25 Nordeste 0 -- -- 53
2020-05-25 15:00:00 24.9 8 Nordeste 22 Este 0 -- -- 50
2020-05-25 14:00:00 24.8 8 Nordeste 20 Norte 0 -- -- 44
2020-05-25 13:00:00 24.1 5 Nordeste 12 Nordeste 0 -- -- 49
2020-05-25 12:00:00 23.3 5 Nordeste 12 Nordeste 0 -- -- 51
2020-05-25 11:00:00 19.9 0 Calma 0 Calma 0 -- -- 62
2020-05-25 10:00:00 15.1 0 Calma 0 Calma 0 -- -- 85
2020-05-25 09:00:00 12.1 0 Calma 0 Calma 0 -- -- 95
2020-05-25 08:00:00 10.1 0 Calma 0 Calma 0 -- -- 98
2020-05-25 07:00:00 9.3 0 Calma 0 Calma 0 -- -- 96
2020-05-25 06:00:00 10.1 0 Calma 0 Calma 0 -- -- 96
2020-05-25 05:00:00 10.7 0 Calma 0 Calma 0 -- -- 96
2020-05-25 04:00:00 11.1 0 Calma 0 Calma 0 -- -- 95
2020-05-25 03:00:00 11.8 0 Calma 0 Calma 0 -- -- 95
2020-05-25 02:00:00 12.3 0 Calma 0 Calma 0 -- -- 92
2020-05-25 01:00:00 13.3 0 Calma 0 Calma 0 -- -- 92
2020-05-25 00:00:00 14 0 Calma 0 Calma 0 -- -- 88
2020-05-24 23:00:00 15 0 Calma 5 Sudeste 0 -- -- 86
2020-05-24 22:00:00 15.7 2 Sudeste 6 Este 0 -- -- 81
2020-05-24 21:00:00 16.6 2 Nordeste 6 Este 0 -- -- 75
2020-05-24 20:00:00 16.8 3 Nordeste 11 Norte 0 -- -- 74
2020-05-24 19:00:00 17.3 3 Este 22 Nordeste 0 -- -- 71
2020-05-24 18:00:00 18.3 8 Nordeste 24 Nordeste 0 -- -- 67
2020-05-24 17:00:00 20.1 8 Nordeste 18 Nordeste 0 -- -- 60
2020-05-24 16:00:00 20.2 9 Nordeste 23 Nordeste 0 -- -- 61
2020-05-24 15:00:00 20.3 9 Nordeste 23 Nordeste 0 -- -- 60
2020-05-24 14:00:00 22.3 6 Este 21 Este 0 -- -- 52
2020-05-24 13:00:00 20 7 Este 19 Este 0 -- -- 57
2020-05-24 12:00:00 18.7 5 Este 14 Este 0 -- -- 61
2020-05-24 11:00:00 17.3 5 Sudeste 15 Este 0 -- -- 65
2020-05-24 10:00:00 13.9 3 Oeste 5 Noroeste 0 -- -- 89
2020-05-24 09:00:00 11.2 2 Oeste 5 Noroeste 0 -- -- 97
2020-05-24 08:00:00 9.4 0 Calma 6 Oeste 0 -- -- 98
2020-05-24 07:00:00 8.5 0 Calma 5 Oeste 0 -- -- 98
2020-05-24 06:00:00 8 0 Calma 2 Oeste 0 -- -- 98
2020-05-24 05:00:00 8.1 2 Oeste 5 Oeste 0 -- -- 98
2020-05-24 04:00:00 8.1 0 Calma 3 Noroeste 0 -- -- 97
2020-05-24 03:00:00 7.9 0 Calma 4 Sudoeste 0 -- -- 97
2020-05-24 02:00:00 8.2 2 Sur 9 Sur 0 -- -- 96
2020-05-24 01:00:00 8.5 0 Calma 3 Noroeste 0 -- -- 95
2020-05-24 00:00:00 9.2 0 Calma 2 Sur 0 -- -- 93
2020-05-23 23:00:00 10.4 0 Calma 2 Sur 0 -- -- 90
2020-05-23 22:00:00 12.6 0 Calma 3 Sudoeste 0 -- -- 83
2020-05-23 21:00:00 16.6 2 Sudoeste 14 Nordeste 0 -- -- 70
2020-05-23 20:00:00 18.4 6 Nordeste 14 Nordeste 0 -- -- 56
2020-05-23 19:00:00 18.7 6 Nordeste 15 Nordeste 0 -- -- 56
2020-05-23 18:00:00 18.9 3 Norte 7 Nordeste 0 -- -- 57
2020-05-23 17:00:00 18.3 2 Sudeste 9 Oeste 0 -- -- 68
2020-05-23 16:00:00 17.4 2 Sur 6 Este 0 -- -- 73
2020-05-23 15:00:00 16.3 0 Calma 11 Oeste 0 -- -- 77
2020-05-23 14:00:00 15.5 4 Oeste 9 Nordeste 0.2 -- -- 86
2020-05-23 13:00:00 14.7 6 Nordeste 17 Nordeste 0.2 -- -- 89
2020-05-23 12:00:00 15.3 0 Calma 14 Nordeste 0 -- -- 89
2020-05-23 11:00:00 14.4 4 Este 14 Nordeste 0.2 -- -- 92
2020-05-23 10:00:00 14.6 4 Nordeste 13 Nordeste 0.4 -- -- 95
2020-05-23 09:00:00 14.7 0 Calma 12 Nordeste 0.6 -- -- 95
2020-05-23 08:00:00 14.7 6 Noroeste 15 Noroeste 0.2 -- -- 96
2020-05-23 07:00:00 15 5 Noroeste 19 Noroeste 0.4 -- -- 95
2020-05-23 06:00:00 15.8 4 Noroeste 18 Oeste 1 -- -- 94
2020-05-23 05:00:00 16.5 0 Calma 5 Oeste 0 -- -- 94
2020-05-23 04:00:00 16.6 0 Calma 6 Sudoeste 0 -- -- 92
2020-05-23 03:00:00 16.7 0 Calma 0 Calma 0 -- -- 92
2020-05-23 02:00:00 16.8 0 Calma 0 Calma 0 -- -- 90
2020-05-23 01:00:00 16.9 0 Calma 0 Calma 0 -- -- 89
2020-05-23 00:00:00 17.4 0 Calma 4 Sur 0 -- -- 87
2020-05-22 23:00:00 17.7 0 Calma 9 Este 0 -- -- 85
2020-05-22 22:00:00 18 2 Sudeste 12 Este 0 -- -- 83
2020-05-22 21:00:00 18.6 4 Este 12 Este 0 -- -- 81
2020-05-22 20:00:00 19 5 Este 13 Nordeste 0 -- -- 78
2020-05-22 19:00:00 19.5 5 Este 14 Nordeste 0 -- -- 76
2020-05-22 18:00:00 20.7 0 Calma 10 Este 0 -- -- 71
2020-05-22 17:00:00 21.9 4 Norte 22 Norte 0 -- -- 67
2020-05-22 16:00:00 23.9 7 Nordeste 23 Nordeste 0 -- -- 62
2020-05-22 15:00:00 24.7 9 Nordeste 23 Nordeste 0 -- -- 61
2020-05-22 14:00:00 24.9 10 Nordeste 19 Este 0 -- -- 60
2020-05-22 13:00:00 24.3 9 Nordeste 20 Nordeste 0 -- -- 61
2020-05-22 12:00:00 23.5 8 Este 18 Este 0 -- -- 63
2020-05-22 11:00:00 21.9 6 Este 16 Nordeste 0 -- -- 66
2020-05-22 10:00:00 18.1 5 Este 15 Este 0 -- -- 81
2020-05-22 09:00:00 14.7 0 Calma 3 Noroeste 0 -- -- 96
2020-05-22 08:00:00 12.7 0 Calma 3 Sudoeste 0 -- -- 97
2020-05-22 07:00:00 12.5 0 Calma 4 Este 0 -- -- 96
2020-05-22 06:00:00 13.1 3 Oeste 4 Oeste 0 -- -- 96
2020-05-22 05:00:00 13.9 0 Calma 4 Oeste 0 -- -- 96
2020-05-22 04:00:00 14.2 0 Calma 6 Noroeste 0 -- -- 96
2020-05-22 03:00:00 14.5 0 Calma 4 Oeste 0 -- -- 95
2020-05-22 02:00:00 15.2 0 Calma 4 Oeste 0 -- -- 94
2020-05-22 01:00:00 16.1 0 Calma 4 Oeste 0 -- -- 92
2020-05-22 00:00:00 17.3 3 Oeste 4 Oeste 0 -- -- 88
2020-05-21 23:00:00 18.9 0 Calma 3 Sur 0 -- -- 88
2020-05-21 22:00:00 21.3 0 Calma 4 Oeste 0 -- -- 79
2020-05-21 21:00:00 25.6 0 Calma 12 Nordeste 0 -- -- 67
2020-05-21 20:00:00 27.6 4 Nordeste 13 Sudeste 0 -- -- 59
2020-05-21 19:00:00 29.8 5 Este 17 Este 0 -- -- 53
2020-05-21 18:00:00 30.2 6 Este 18 Nordeste 0 -- -- 51
2020-05-21 17:00:00 29.9 7 Este 19 Nordeste 0 -- -- 53
2020-05-21 16:00:00 30.5 7 Este 17 Este 0 -- -- 50
2020-05-21 15:00:00 29.2 5 Este 17 Nordeste 0 -- -- 50
2020-05-21 14:00:00 27.4 6 Este 14 Nordeste 0 -- -- 54
2020-05-21 13:00:00 24.9 4 Este 14 Nordeste 0 -- -- 59
2020-05-21 12:00:00 22.7 5 Nordeste 12 Nordeste 0 -- -- 63
2020-05-21 11:00:00 19.1 2 Oeste 5 Noroeste 0 -- -- 73
2020-05-21 10:00:00 15.3 2 Norte 5 Oeste 0 -- -- 84
2020-05-21 09:00:00 12.8 0 Calma 5 Oeste 0 -- -- 92
2020-05-21 08:00:00 10.8 2 Oeste 4 Sudoeste 0 -- -- 97
2020-05-21 07:00:00 9.9 0 Calma 5 Sudoeste 0 -- -- 96
2020-05-21 06:00:00 10.1 2 Oeste 10 Oeste 0 -- -- 96
2020-05-21 05:00:00 10.5 2 Oeste 5 Oeste 0 -- -- 93
2020-05-21 04:00:00 11.2 3 Oeste 5 Oeste 0 -- -- 94
2020-05-21 03:00:00 11.9 0 Calma 4 Oeste 0 -- -- 91
2020-05-21 02:00:00 13.3 0 Calma 11 Oeste 0 -- -- 86
2020-05-21 01:00:00 14.4 5 Oeste 21 Oeste 0 -- -- 83
2020-05-21 00:00:00 15 0 Calma 5 Norte 0 -- -- 80
2020-05-20 23:00:00 16.8 2 Noroeste 15 Oeste 0 -- -- 75
2020-05-20 22:00:00 19.4 4 Norte 18 Este 0 -- -- 73
2020-05-20 21:00:00 22.8 5 Este 14 Nordeste 0 -- -- 57
2020-05-20 20:00:00 26.5 4 Nordeste 14 Norte 0 -- -- 46
2020-05-20 19:00:00 28.1 3 Nordeste 19 Este 0 -- -- 45
2020-05-20 18:00:00 29.3 8 Nordeste 20 Nordeste 0 -- -- 44
2020-05-20 17:00:00 30.5 8 Este 21 Este 0 -- -- 41
2020-05-20 16:00:00 31.1 7 Este 17 Este 0 -- -- 42
2020-05-20 15:00:00 30.7 9 Este 20 Nordeste 0 -- -- 41
2020-05-20 14:00:00 29.9 8 Nordeste 17 Nordeste 0 -- -- 38
2020-05-20 13:00:00 28.4 5 Nordeste 14 Nordeste 0 -- -- 37
2020-05-20 12:00:00 26.4 5 Nordeste 12 Nordeste 0 -- -- 43
2020-05-20 11:00:00 21.3 0 Calma 5 Oeste 0 -- -- 65
2020-05-20 10:00:00 15.5 0 Calma 3 Norte 0 -- -- 82
2020-05-20 09:00:00 11.8 0 Calma 3 Noroeste 0 -- -- 96
2020-05-20 08:00:00 9.6 0 Calma 5 Sudoeste 0 -- -- 99
2020-05-20 07:00:00 8.6 0 Calma 6 Oeste 0 -- -- 97
2020-05-20 06:00:00 8.7 3 Oeste 5 Oeste 0 -- -- 97
2020-05-20 05:00:00 9.1 0 Calma 4 Sudoeste 0 -- -- 96
2020-05-20 04:00:00 9.4 0 Calma 3 Oeste 0 -- -- 95
2020-05-20 03:00:00 10 0 Calma 3 Oeste 0 -- -- 95
2020-05-20 02:00:00 10.6 0 Calma 5 Sudoeste 0 -- -- 94
2020-05-20 01:00:00 11.3 0 Calma 6 Oeste 0 -- -- 91
2020-05-20 00:00:00 12.3 0 Calma 5 Oeste 0 -- -- 88
2020-05-19 23:00:00 14.1 0 Calma 2 Oeste 0 -- -- 80
2020-05-19 22:00:00 17 0 Calma 4 Oeste 0 -- -- 69
2020-05-19 21:00:00 22.1 0 Calma 8 Este 0 -- -- 54
2020-05-19 20:00:00 25.3 3 Este 10 Este 0 -- -- 44
2020-05-19 19:00:00 25.6 4 Nordeste 18 Nordeste 0 -- -- 42
2020-05-19 18:00:00 25.5 6 Nordeste 22 Nordeste 0 -- -- 44
2020-05-19 17:00:00 26.1 8 Nordeste 23 Nordeste 0 -- -- 44
2020-05-19 16:00:00 26.4 9 Nordeste 21 Nordeste 0 -- -- 42
2020-05-19 15:00:00 26.3 8 Nordeste 17 Nordeste 0 -- -- 44
2020-05-19 14:00:00 26.2 4 Nordeste 17 Nordeste 0 -- -- 45
2020-05-19 13:00:00 25.6 6 Este 20 Sudeste 0 -- -- 43
2020-05-19 12:00:00 23.5 8 Nordeste 18 Nordeste 0 -- -- 49
2020-05-19 11:00:00 19.6 4 Nordeste 6 Este 0 -- -- 60
2020-05-19 10:00:00 13.6 0 Calma 3 Norte 0 -- -- 86
2020-05-19 09:00:00 10.2 0 Calma 3 Noroeste 0 -- -- 97
2020-05-19 08:00:00 8.3 0 Calma 2 Noroeste 0 -- -- 99
2020-05-19 07:00:00 7.4 0 Calma 3 Oeste 0 -- -- 97
2020-05-19 06:00:00 7.8 0 Calma 3 Oeste 0 -- -- 97
2020-05-19 05:00:00 8.1 0 Calma 3 Oeste 0 -- -- 96
2020-05-19 04:00:00 8.5 0 Calma 3 Oeste 0 -- -- 96
2020-05-19 03:00:00 8.9 0 Calma 3 Oeste 0 -- -- 95
2020-05-19 02:00:00 9.4 2 Sudoeste 4 Oeste 0 -- -- 94
2020-05-19 01:00:00 10.3 0 Calma 4 Sudoeste 0 -- -- 92
2020-05-19 00:00:00 11.3 0 Calma 4 Oeste 0 -- -- 88
2020-05-18 23:00:00 13.1 0 Calma 3 Oeste 0 -- -- 82
2020-05-18 22:00:00 15.9 0 Calma 9 Este 0 -- -- 73
2020-05-18 21:00:00 19.8 4 Este 17 Nordeste 0 -- -- 61
2020-05-18 20:00:00 21.8 6 Este 20 Este 0 -- -- 57
2020-05-18 19:00:00 23.5 8 Este 21 Este 0 -- -- 54
2020-05-18 18:00:00 24.5 6 Este 22 Este 0 -- -- 51
2020-05-18 17:00:00 24.3 8 Nordeste 22 Nordeste 0 -- -- 48
2020-05-18 16:00:00 24.8 8 Nordeste 22 Nordeste 0 -- -- 47
2020-05-18 15:00:00 24.6 8 Este 17 Nordeste 0 -- -- 49
2020-05-18 14:00:00 24 6 Nordeste 19 Nordeste 0 -- -- 49
2020-05-18 13:00:00 23.2 6 Nordeste 15 Nordeste 0 -- -- 49
2020-05-18 12:00:00 21.3 5 Este 13 Nordeste 0 -- -- 51
2020-05-18 11:00:00 16.8 0 Calma 4 Norte 0 -- -- 65
2020-05-18 10:00:00 11.4 0 Calma 3 Noroeste 0.2 -- -- 82
2020-05-18 09:00:00 8.1 2 Nordeste 5 Nordeste 0 -- -- 98
2020-05-18 08:00:00 6.1 0 Calma 4 Noroeste 0 -- -- 99
2020-05-18 07:00:00 5 2 Oeste 4 Sudoeste 0 -- -- 97
2020-05-18 06:00:00 5.2 2 Oeste 4 Oeste 0 -- -- 97
2020-05-18 05:00:00 5.6 0 Calma 3 Sudoeste 0 -- -- 97
2020-05-18 04:00:00 6.2 0 Calma 4 Sudoeste 0 -- -- 97
2020-05-18 03:00:00 6.7 0 Calma 5 Oeste 0 -- -- 96
2020-05-18 02:00:00 7.3 0 Calma 4 Sudoeste 0 -- -- 95
2020-05-18 01:00:00 8 3 Oeste 5 Oeste 0 -- -- 93
2020-05-18 00:00:00 9.2 0 Calma 3 Sudoeste 0 -- -- 90
2020-05-17 23:00:00 10.8 0 Calma 2 Sudoeste 0 -- -- 85
2020-05-17 22:00:00 13.6 0 Calma 7 Sudeste 0 -- -- 75
2020-05-17 21:00:00 18 3 Nordeste 12 Este 0 -- -- 54
2020-05-17 20:00:00 20.2 4 Nordeste 19 Nordeste 0 -- -- 49
2020-05-17 19:00:00 21 7 Nordeste 18 Nordeste 0 -- -- 48
2020-05-17 18:00:00 21.6 8 Nordeste 22 Nordeste 0 -- -- 47
2020-05-17 17:00:00 21.8 6 Nordeste 22 Nordeste 0 -- -- 46
2020-05-17 16:00:00 21.8 10 Nordeste 23 Nordeste 0 -- -- 49
2020-05-17 15:00:00 21.8 6 Nordeste 17 Nordeste 0 -- -- 52
2020-05-17 14:00:00 21.6 4 Sudeste 12 Este 0 -- -- 50
2020-05-17 13:00:00 20.2 3 Oeste 17 Oeste 0 -- -- 55
2020-05-17 12:00:00 18.9 4 Este 8 Sudeste 0 -- -- 60
2020-05-17 11:00:00 15.6 0 Calma 4 Nordeste 0 -- -- 64
2020-05-17 10:00:00 10.4 0 Calma 5 Nordeste 0 -- -- 93
2020-05-17 09:00:00 7.8 0 Calma 3 Oeste 0 -- -- 100
2020-05-17 08:00:00 6.1 0 Calma 4 Sudoeste 0 -- -- 99
2020-05-17 07:00:00 5.8 0 Calma 4 Oeste 0 -- -- 99
2020-05-17 06:00:00 5.2 0 Calma 5 Oeste 0 -- -- 98
2020-05-17 05:00:00 5.6 0 Calma 3 Sur 0 -- -- 97
2020-05-17 04:00:00 6.3 0 Calma 3 Oeste 0 -- -- 97
2020-05-17 03:00:00 7.1 0 Calma 4 Oeste 0 -- -- 96
2020-05-17 02:00:00 7.9 0 Calma 3 Sudoeste 0 -- -- 95
2020-05-17 01:00:00 9.1 0 Calma 3 Oeste 0 -- -- 94
2020-05-17 00:00:00 10.2 0 Calma 3 Oeste 0 -- -- 94
2020-05-16 23:00:00 10.8 0 Calma 4 Sudoeste 0 -- -- 91
2020-05-16 22:00:00 12.2 0 Calma 5 Sur 0 -- -- 87
2020-05-16 21:00:00 14.7 2 Sur 8 Nordeste 0 -- -- 78
2020-05-16 20:00:00 16.1 4 Este 13 Este 0 -- -- 69
2020-05-16 19:00:00 16.3 0 Calma 15 Noroeste 0 -- -- 74
2020-05-16 18:00:00 17 5 Norte 13 Noroeste 0 -- -- 67
2020-05-16 17:00:00 16.8 5 Noroeste 15 Sudoeste 0 -- -- 72
2020-05-16 16:00:00 16.8 8 Noroeste 16 Oeste 0 -- -- 67
2020-05-16 15:00:00 17.3 5 Noroeste 19 Oeste 0 -- -- 64
2020-05-16 14:00:00 17.3 5 Noroeste 16 Noroeste 0 -- -- 68
2020-05-16 13:00:00 16.8 6 Noroeste 17 Noroeste 0 -- -- 71
2020-05-16 12:00:00 15.9 4 Noroeste 15 Noroeste 0 -- -- 74
2020-05-16 11:00:00 15 9 Oeste 16 Oeste 0 -- -- 76
2020-05-16 10:00:00 14.3 4 Oeste 9 Oeste 0 -- -- 79
2020-05-16 09:00:00 12.2 3 Sudeste 6 Sur 0 -- -- 95
2020-05-16 08:00:00 10.9 0 Calma 6 Sudeste 0 -- -- 99
2020-05-16 07:00:00 10.3 0 Calma 4 Sudeste 0 -- -- 99
2020-05-16 06:00:00 10.1 0 Calma 4 Sudoeste 0 -- -- 98
2020-05-16 05:00:00 9.7 0 Calma 3 Sur 0 -- -- 98
2020-05-16 04:00:00 9.7 0 Calma 3 Sur 0 -- -- 96
2020-05-16 03:00:00 10.2 0 Calma 4 Sudeste 0 -- -- 96
2020-05-16 02:00:00 10.5 0 Calma 4 Oeste 0 -- -- 95
2020-05-16 01:00:00 10.9 0 Calma 6 Oeste 0 -- -- 94
2020-05-16 00:00:00 11.1 0 Calma 4 Oeste 0 -- -- 94
2020-05-15 23:00:00 11.4 2 Sudoeste 4 Sudoeste 0 -- -- 92
2020-05-15 22:00:00 12.1 4 Oeste 6 Oeste 0 -- -- 89
2020-05-15 21:00:00 13.2 0 Calma 11 Nordeste 0 -- -- 82
2020-05-15 20:00:00 13.5 4 Nordeste 13 Este 0 -- -- 80
2020-05-15 19:00:00 13.9 3 Nordeste 15 Este 0 -- -- 80
2020-05-15 18:00:00 14.2 6 Este 16 Nordeste 0 -- -- 77
2020-05-15 17:00:00 14.7 3 Nordeste 16 Norte 0 -- -- 78
2020-05-15 16:00:00 15.2 4 Noroeste 11 Este 0 -- -- 81
2020-05-15 15:00:00 14.7 4 Este 15 Este 0 -- -- 84
2020-05-15 14:00:00 14.4 4 Este 11 Nordeste 0 -- -- 84
2020-05-15 13:00:00 14.1 3 Noroeste 9 Oeste 0 -- -- 86
2020-05-15 12:00:00 13.5 2 Oeste 6 Oeste 0 -- -- 92
2020-05-15 11:00:00 13 3 Oeste 7 Oeste 0 -- -- 97
2020-05-15 10:00:00 12.6 3 Oeste 8 Oeste 0 -- -- 98
2020-05-15 09:00:00 12.3 3 Oeste 6 Oeste 0 -- -- 99
2020-05-15 08:00:00 11.9 0 Calma 3 Oeste 0.2 -- -- 98
2020-05-15 07:00:00 11.7 0 Calma 6 Nordeste 2.4 -- -- 98
2020-05-15 06:00:00 11.8 0 Calma 5 Sur 0 -- -- 97
2020-05-15 05:00:00 11.7 3 Sudeste 7 Oeste 0 -- -- 96
2020-05-15 04:00:00 11.7 5 Oeste 10 Oeste 0 -- -- 95
2020-05-15 03:00:00 11.7 4 Oeste 11 Noroeste 0 -- -- 95
2020-05-15 02:00:00 11.9 4 Noroeste 14 Oeste 0 -- -- 95
2020-05-15 01:00:00 11.9 6 Oeste 13 Oeste 0 -- -- 95
2020-05-15 00:00:00 12.2 4 Oeste 9 Oeste 0.2 -- -- 95
2020-05-14 23:00:00 12.4 0 Calma 5 Oeste 0 -- -- 96
2020-05-14 22:00:00 12.5 0 Calma 7 Noroeste 0 -- -- 95
2020-05-14 21:00:00 12.9 0 Calma 6 Nordeste 0 -- -- 94
2020-05-14 20:00:00 13.3 3 Nordeste 21 Nordeste 0.2 -- -- 91
2020-05-14 19:00:00 14.8 4 Este 21 Nordeste 0 -- -- 84
2020-05-14 18:00:00 16 3 Este 18 Norte 0 -- -- 76
2020-05-14 17:00:00 15.4 3 Nordeste 13 Nordeste 0 -- -- 79
2020-05-14 16:00:00 14.9 5 Este 15 Este 0 -- -- 88
2020-05-14 15:00:00 14.2 3 Norte 14 Nordeste 0.2 -- -- 90
2020-05-14 14:00:00 15.2 3 Noroeste 6 Oeste 0 -- -- 83
2020-05-14 13:00:00 14.4 0 Calma 6 Sudoeste 0 -- -- 89
2020-05-14 12:00:00 13.9 2 Oeste 4 Oeste 0.4 -- -- 96
2020-05-14 11:00:00 13.4 0 Calma 3 Oeste 0 -- -- 96
2020-05-14 10:00:00 13.2 0 Calma 2 Sur 0 -- -- 97
2020-05-14 09:00:00 13 0 Calma 2 Nordeste 0 -- -- 98
2020-05-14 08:00:00 12.5 0 Calma 4 Oeste 0 -- -- 98
2020-05-14 07:00:00 12.2 0 Calma 3 Sudoeste 0 -- -- 98
2020-05-14 06:00:00 12.3 2 Norte 4 Nordeste 0 -- -- 98
2020-05-14 05:00:00 12.4 2 Oeste 4 Oeste 0 -- -- 98
2020-05-14 04:00:00 12.4 0 Calma 3 Sudoeste 0 -- -- 98
2020-05-14 03:00:00 12.4 0 Calma 0 Calma 0 -- -- 97
2020-05-14 02:00:00 12.5 0 Calma -- -- 0 -- -- 97
2020-05-14 01:00:00 12.6 0 Calma 2 Sudeste 0.2 -- -- 96
2020-05-14 00:00:00 12.7 0 Calma 2 Sudeste 0 -- -- 96
2020-05-13 23:00:00 12.9 0 Calma 3 Sudeste 0 -- -- 95
2020-05-13 22:00:00 13.2 0 Calma 2 Sudoeste 0 -- -- 94
2020-05-13 21:00:00 13.4 0 Calma 4 Noroeste 0 -- -- 93
2020-05-13 20:00:00 13.6 0 Calma 9 Este 0 -- -- 91
2020-05-13 19:00:00 14 2 Este 8 Este 0 -- -- 91
2020-05-13 18:00:00 14.5 3 Este 9 Nordeste 0 -- -- 87
2020-05-13 17:00:00 15 3 Noroeste 11 Nordeste 0 -- -- 83
2020-05-13 16:00:00 15.4 7 Este 16 Nordeste 0 -- -- 80
2020-05-13 15:00:00 16.9 5 Este 17 Nordeste 0 -- -- 79
2020-05-13 14:00:00 17.1 4 Este 9 Nordeste 0 -- -- 79
2020-05-13 13:00:00 16 3 Sudoeste 7 Sudoeste 0 -- -- 81
2020-05-13 12:00:00 15.5 0 Calma 4 Nordeste 0 -- -- 87
2020-05-13 11:00:00 12.9 0 Calma 3 Nordeste 0.2 -- -- 96
2020-05-13 10:00:00 12.1 0 Calma 4 Nordeste 0.2 -- -- 97
2020-05-13 09:00:00 11.9 0 Calma 2 Sur 2.2 -- -- 98
2020-05-13 08:00:00 11.5 0 Calma 2 Sudeste 0.6 -- -- 98
2020-05-13 07:00:00 11.4 0 Calma 0 Calma 0 -- -- 98
2020-05-13 06:00:00 11.4 0 Calma 0 Calma 0.2 -- -- 97
2020-05-13 05:00:00 11.4 0 Calma 0 Calma 0 -- -- 97
2020-05-13 04:00:00 11.4 0 Calma 0 Calma 0 -- -- 97
2020-05-13 03:00:00 11.5 0 Calma 0 Calma 0.2 -- -- 96
2020-05-13 02:00:00 11.5 0 Calma 3 Oeste 0 -- -- 96
2020-05-13 01:00:00 11.6 0 Calma 2 Sudeste 0 -- -- 95
2020-05-13 00:00:00 11.7 0 Calma 0 Calma 0 -- -- 95
2020-05-12 23:00:00 11.7 0 Calma 3 Sudeste 0 -- -- 94
2020-05-12 22:00:00 11.8 0 Calma 3 Sur 0 -- -- 93
2020-05-12 21:00:00 12 0 Calma 5 Sur 0 -- -- 91
2020-05-12 20:00:00 12.3 0 Calma 6 Sudoeste 0 -- -- 90
2020-05-12 19:00:00 12.6 3 Este 9 Este 0 -- -- 88
2020-05-12 18:00:00 12.8 3 Este 12 Nordeste 0 -- -- 86
2020-05-12 17:00:00 13.1 5 Este 14 Este 0 -- -- 83
2020-05-12 16:00:00 13.5 4 Este 11 Nordeste 0 -- -- 83
2020-05-12 15:00:00 13.6 4 Nordeste 13 Nordeste 0 -- -- 81
2020-05-12 14:00:00 13.6 5 Nordeste 10 Este 0 -- -- 82
2020-05-12 13:00:00 14.1 3 Nordeste 9 Norte 0 -- -- 79
2020-05-12 12:00:00 14.1 2 Sudoeste 6 Sudoeste 0 -- -- 79
2020-05-12 11:00:00 12.9 2 Sudoeste 4 Noroeste 0 -- -- 83
2020-05-12 10:00:00 12 3 Noroeste 4 Oeste 0 -- -- 88
2020-05-12 09:00:00 11.1 0 Calma 6 Sur 0 -- -- 91
2020-05-12 08:00:00 10.7 0 Calma 9 Sudeste 0 -- -- 93
2020-05-12 07:00:00 10.7 0 Calma 6 Sudeste 0 -- -- 93
2020-05-12 06:00:00 10.9 3 Sudeste 10 Este 0 -- -- 92
2020-05-12 05:00:00 11.1 2 Este 12 Nordeste 0 -- -- 92
2020-05-12 04:00:00 11.5 3 Este 8 Este 0 -- -- 92
2020-05-12 03:00:00 11.6 0 Calma 5 Sudeste 0 -- -- 93
2020-05-12 02:00:00 11.8 0 Calma 8 Sur 0 -- -- 93
2020-05-12 01:00:00 12.1 4 Sudeste 8 Sudeste 0 -- -- 94
2020-05-12 00:00:00 12.4 2 Sudeste 6 Este 0 -- -- 93
2020-05-11 23:00:00 12.7 3 Sudeste 11 Este 0 -- -- 93
2020-05-11 22:00:00 13.3 5 Este 12 Este 0 -- -- 92
2020-05-11 21:00:00 13.9 5 Este 18 Nordeste 0 -- -- 89
2020-05-11 20:00:00 14.8 8 Este 19 Nordeste 0 -- -- 86
2020-05-11 19:00:00 16.1 6 Este 19 Este 0 -- -- 82
2020-05-11 18:00:00 19.5 5 Noroeste 28 Noroeste 0 -- -- 62
2020-05-11 17:00:00 18.9 9 Noroeste 24 Noroeste 0 -- -- 65
2020-05-11 16:00:00 20.1 10 Noroeste 23 Oeste 0 -- -- 65
2020-05-11 15:00:00 19.5 9 Noroeste 23 Noroeste 0 -- -- 65
2020-05-11 14:00:00 18.9 11 Noroeste 26 Noroeste 0 -- -- 64
2020-05-11 13:00:00 17.4 9 Oeste 26 Oeste 0 -- -- 73
2020-05-11 12:00:00 17.2 7 Noroeste 27 Oeste 0.2 -- -- 73
2020-05-11 11:00:00 17 7 Oeste 21 Sudoeste 0 -- -- 75
2020-05-11 10:00:00 15.2 4 Oeste 17 Sudoeste 0 -- -- 82
2020-05-11 09:00:00 12.2 0 Calma 5 Sudeste 0 -- -- 99
2020-05-11 08:00:00 10.4 2 Sudoeste 6 Sur 0 -- -- 98
2020-05-11 07:00:00 10.5 0 Calma 8 Noroeste 0 -- -- 97
2020-05-11 06:00:00 11.3 2 Norte 8 Noroeste 0 -- -- 96
2020-05-11 05:00:00 12.1 4 Sur 13 Este 0 -- -- 95
2020-05-11 04:00:00 12.6 2 Sur 11 Oeste 0 -- -- 93
2020-05-11 03:00:00 13 3 Sur 7 Noroeste 0 -- -- 95
2020-05-11 02:00:00 13.1 3 Sudoeste 7 Oeste 0 -- -- 96
2020-05-11 01:00:00 13.1 0 Calma 6 Sur 0 -- -- 96
2020-05-11 00:00:00 13.1 0 Calma 17 Oeste 0 -- -- 95
2020-05-10 23:00:00 13.2 3 Sur 18 Sur 0 -- -- 92
2020-05-10 22:00:00 13.4 4 Sur 19 Oeste 0.2 -- -- 93
2020-05-10 21:00:00 13.7 5 Oeste 15 Oeste 0.6 -- -- 93
2020-05-10 20:00:00 14.4 5 Oeste 13 Oeste 0 -- -- 93
2020-05-10 19:00:00 14.5 6 Noroeste 16 Noroeste 0 -- -- 92
2020-05-10 18:00:00 14.5 5 Noroeste 14 Oeste 0.2 -- -- 92
2020-05-10 17:00:00 14.6 5 Noroeste 15 Noroeste 0.2 -- -- 93
2020-05-10 16:00:00 14.6 8 Noroeste 23 Oeste 1.2 -- -- 93
2020-05-10 15:00:00 15.7 6 Oeste 21 Noroeste 0 -- -- 87
2020-05-10 14:00:00 14.8 6 Noroeste 26 Oeste 0.6 -- -- 92
2020-05-10 13:00:00 15.3 5 Noroeste 27 Oeste 0.4 -- -- 92
2020-05-10 12:00:00 16.3 12 Oeste 24 Oeste 0 -- -- 84
2020-05-10 11:00:00 15.8 0 Calma 6 Nordeste 0 -- -- 94
2020-05-10 10:00:00 13.2 2 Noroeste 6 Este 0 -- -- 98
2020-05-10 09:00:00 12.8 0 Calma 8 Nordeste 0.4 -- -- 98
2020-05-10 08:00:00 12.6 5 Sur 24 Sur 5.8 -- -- 97
2020-05-10 07:00:00 14.4 13 Sur 28 Sur 15.4 -- -- 94
2020-05-10 06:00:00 15.4 0 Calma 6 Este 0 -- -- 97
2020-05-10 05:00:00 15.5 0 Calma 4 Este 0 -- -- 97
2020-05-10 04:00:00 15.5 2 Este 7 Nordeste 0 -- -- 96
2020-05-10 03:00:00 15.5 0 Calma 5 Nordeste 0 -- -- 96
2020-05-10 02:00:00 15.6 0 Calma 6 Este 0.2 -- -- 95
2020-05-10 01:00:00 15.9 0 Calma 9 Nordeste 0.4 -- -- 95
2020-05-10 00:00:00 16.2 3 Este 9 Este 0 -- -- 94
2020-05-09 23:00:00 16.5 3 Este 12 Este 0 -- -- 92
2020-05-09 22:00:00 16.8 5 Este 14 Este 0 -- -- 91
2020-05-09 21:00:00 17.8 2 Este 10 Nordeste 0 -- -- 86
2020-05-09 20:00:00 19 2 Este 12 Este 0 -- -- 82
2020-05-09 19:00:00 18.7 6 Nordeste 15 Nordeste 0 -- -- 81
2020-05-09 18:00:00 18.1 5 Nordeste 16 Nordeste 0 -- -- 86
2020-05-09 17:00:00 18.1 4 Oeste 18 Oeste 0 -- -- 87
2020-05-09 16:00:00 21.4 6 Norte 18 Nordeste 0 -- -- 75
2020-05-09 15:00:00 24.5 7 Este 20 Nordeste 0 -- -- 71
2020-05-09 14:00:00 24.6 4 Nordeste 12 Noroeste 0 -- -- 68
2020-05-09 13:00:00 23.4 3 Norte 9 Este 0 -- -- 71
2020-05-09 12:00:00 21 5 Nordeste 19 Este 0 -- -- 80
2020-05-09 11:00:00 19.9 3 Este 8 Norte 0 -- -- 83
2020-05-09 10:00:00 16.4 0 Calma 10 Sudoeste 0 -- -- 94
2020-05-09 09:00:00 15.2 5 Oeste 8 Oeste 0 -- -- 99
2020-05-09 08:00:00 13.6 3 Noroeste 10 Este 0 -- -- 98
2020-05-09 07:00:00 12.8 0 Calma 5 Oeste 0 -- -- 97
2020-05-09 06:00:00 13.4 2 Oeste 15 Este 0 -- -- 96
2020-05-09 05:00:00 13.9 2 Sudeste 10 Este 0 -- -- 97
2020-05-09 04:00:00 14.7 0 Calma 13 Este 0.2 -- -- 95
2020-05-09 03:00:00 15.5 3 Sur 15 Sudoeste 0.4 -- -- 96
2020-05-09 02:00:00 15.8 0 Calma 8 Sudoeste 1.2 -- -- 96
2020-05-09 01:00:00 15.9 4 Sudeste 11 Sudeste 0 -- -- 96
2020-05-09 00:00:00 16.1 2 Sudoeste 26 Noroeste 0 -- -- 94
2020-05-08 23:00:00 16.4 11 Oeste 21 Noroeste 0.6 -- -- 92
2020-05-08 22:00:00 17.8 6 Sudeste 14 Este 5.4 -- -- 86
2020-05-08 21:00:00 21.3 3 Sudeste 12 Este 0 -- -- 73
2020-05-08 20:00:00 24.2 3 Este 17 Nordeste 0 -- -- 64
2020-05-08 19:00:00 23.7 4 Este 15 Este 0 -- -- 63
2020-05-08 18:00:00 24.9 3 Este 14 Nordeste 0 -- -- 64
2020-05-08 17:00:00 27 3 Este 12 Este 0 -- -- 58
2020-05-08 16:00:00 27.2 3 Norte 20 Sudeste 0 -- -- 54
2020-05-08 15:00:00 27.8 6 Este 24 Sur 0 -- -- 51
2020-05-08 14:00:00 26.1 7 Sur 37 Sur 0 -- -- 51
2020-05-08 13:00:00 24.7 11 Sur 39 Sudeste 0 -- -- 47
2020-05-08 12:00:00 21.9 20 Sur 38 Sur 0 -- -- 56
2020-05-08 11:00:00 19 14 Sur 31 Sudoeste 0 -- -- 70
2020-05-08 10:00:00 16.6 0 Calma 6 Sur 0 -- -- 96
2020-05-08 09:00:00 16.3 3 Sudeste 9 Sudoeste 0 -- -- 96
2020-05-08 08:00:00 16.7 3 Sudoeste 21 Sudeste 3 -- -- 92
2020-05-08 07:00:00 18.4 6 Sudeste 18 Este 0 -- -- 81
2020-05-08 06:00:00 15.9 5 Oeste 7 Sudoeste 0 -- -- 96
2020-05-08 05:00:00 16.4 2 Nordeste 17 Este 0 -- -- 96
2020-05-08 04:00:00 16.8 4 Sudoeste 9 Sudeste 0 -- -- 97
2020-05-08 03:00:00 16.9 3 Sudoeste 7 Oeste 0 -- -- 97
2020-05-08 02:00:00 17.1 2 Oeste 5 Oeste 0 -- -- 96
2020-05-08 01:00:00 17.3 0 Calma 9 Oeste 0 -- -- 95
2020-05-08 00:00:00 17.7 5 Sudoeste 8 Oeste 0 -- -- 94
2020-05-07 23:00:00 18.5 3 Este 29 Oeste 0.6 -- -- 91
2020-05-07 22:00:00 18.9 4 Este 14 Nordeste 0 -- -- 85
2020-05-07 21:00:00 20.3 2 Noroeste 10 Nordeste 0 -- -- 81
2020-05-07 20:00:00 22.5 5 Nordeste 11 Nordeste 0 -- -- 74
2020-05-07 19:00:00 24.5 4 Este 13 Nordeste 0 -- -- 70
2020-05-07 18:00:00 26.3 5 Este 16 Este 0 -- -- 62
2020-05-07 17:00:00 26.7 8 Este 19 Nordeste 0 -- -- 62
2020-05-07 16:00:00 26 7 Este 18 Nordeste 0 -- -- 64
2020-05-07 15:00:00 24.9 6 Este 21 Este 0 -- -- 66
2020-05-07 14:00:00 24.4 7 Este 18 Nordeste 0 -- -- 68
2020-05-07 13:00:00 24.1 6 Este 19 Este 0 -- -- 67
2020-05-07 12:00:00 21.8 6 Nordeste 11 Nordeste 0 -- -- 70
2020-05-07 11:00:00 18 0 Calma 8 Noroeste 0 -- -- 81
2020-05-07 10:00:00 15.1 2 Oeste 5 Este 0 -- -- 93
2020-05-07 09:00:00 13.8 0 Calma 4 Sudeste 0 -- -- 98
2020-05-07 08:00:00 12.9 0 Calma 3 Oeste 0 -- -- 98
2020-05-07 07:00:00 12.2 0 Calma 3 Noroeste 0 -- -- 98
2020-05-07 06:00:00 11.9 0 Calma 3 Oeste 0 -- -- 98
2020-05-07 05:00:00 11.4 0 Calma 4 Oeste 0 -- -- 97
2020-05-07 04:00:00 11.3 3 Oeste 4 Oeste 0 -- -- 96
2020-05-07 03:00:00 11.8 0 Calma 3 Oeste 0 -- -- 96
2020-05-07 02:00:00 12.4 0 Calma 3 Oeste 0 -- -- 94
2020-05-07 01:00:00 13.1 0 Calma 5 Sudoeste 0 -- -- 94
2020-05-07 00:00:00 13.8 0 Calma 2 Sudoeste 0 -- -- 92
2020-05-06 23:00:00 15 0 Calma 3 Sur 0 -- -- 88
2020-05-06 22:00:00 17 0 Calma 9 Norte 0 -- -- 83
2020-05-06 21:00:00 19.3 5 Norte 21 Nordeste 0 -- -- 72
2020-05-06 20:00:00 21.3 6 Este 15 Este 0 -- -- 65
2020-05-06 19:00:00 23.5 5 Este 19 Este 0 -- -- 55
2020-05-06 18:00:00 25.4 7 Este 21 Nordeste 0 -- -- 48
2020-05-06 17:00:00 26.2 9 Nordeste 18 Este 0 -- -- 52
2020-05-06 16:00:00 26.3 10 Este 19 Este 0 -- -- 56
2020-05-06 15:00:00 26.2 8 Este 18 Este 0 -- -- 56
2020-05-06 14:00:00 25.5 5 Este 17 Este 0 -- -- 57
2020-05-06 13:00:00 24.1 4 Nordeste 13 Nordeste 0 -- -- 57
2020-05-06 12:00:00 22.7 3 Nordeste 10 Norte 0 -- -- 62
2020-05-06 11:00:00 19.6 0 Calma 4 Nordeste 0 -- -- 69
2020-05-06 10:00:00 14 0 Calma 3 Este 0 -- -- 94
2020-05-06 09:00:00 10.9 0 Calma 4 Norte 0 -- -- 99
2020-05-06 08:00:00 9.6 0 Calma 3 Oeste 0 -- -- 99
2020-05-06 07:00:00 8.5 0 Calma 4 Oeste 0 -- -- 98
2020-05-06 06:00:00 8.7 0 Calma 2 Oeste 0 -- -- 97
2020-05-06 05:00:00 9.2 0 Calma 3 Sur 0 -- -- 97
2020-05-06 04:00:00 9.7 0 Calma 3 Oeste 0 -- -- 96
2020-05-06 03:00:00 10.3 0 Calma 4 Oeste 0 -- -- 96
2020-05-06 02:00:00 10.9 2 Oeste 4 Oeste 0 -- -- 95
2020-05-06 01:00:00 11.6 0 Calma 4 Oeste 0 -- -- 94
2020-05-06 00:00:00 12.6 0 Calma 4 Oeste 0 -- -- 92
2020-05-05 23:00:00 13.8 0 Calma 3 Oeste 0 -- -- 89
2020-05-05 22:00:00 15.7 0 Calma 4 Sur 0 -- -- 83
2020-05-05 21:00:00 18.7 3 Sudeste 14 Este 0 -- -- 73
2020-05-05 20:00:00 21.4 6 Este 19 Nordeste 0 -- -- 63
2020-05-05 19:00:00 22.5 8 Este 22 Este 0 -- -- 59
2020-05-05 18:00:00 24 6 Este 22 Este 0 -- -- 54
2020-05-05 17:00:00 24.7 6 Este 21 Este 0 -- -- 54
2020-05-05 16:00:00 25.8 6 Nordeste 22 Nordeste 0 -- -- 52
2020-05-05 15:00:00 26 6 Nordeste 22 Nordeste 0 -- -- 51
2020-05-05 14:00:00 25.2 9 Nordeste 21 Nordeste 0 -- -- 49
2020-05-05 13:00:00 25.2 7 Nordeste 16 Nordeste 0 -- -- 46
2020-05-05 12:00:00 23.9 4 Nordeste 10 Nordeste 0 -- -- 55
2020-05-05 11:00:00 21.2 0 Calma 3 Noroeste 0 -- -- 63
2020-05-05 10:00:00 16.2 0 Calma 3 Este 0 -- -- 86
2020-05-05 09:00:00 12.6 0 Calma 3 Oeste 0 -- -- 97
2020-05-05 08:00:00 11.5 0 Calma 4 Sudoeste 0 -- -- 96
2020-05-05 07:00:00 12.1 0 Calma 11 Sudoeste 0 -- -- 95
2020-05-05 06:00:00 12.5 6 Sudoeste 15 Norte 0 -- -- 97
2020-05-05 05:00:00 12.3 2 Oeste 6 Oeste 0 -- -- 96
2020-05-05 04:00:00 12.5 0 Calma 6 Sudeste 0 -- -- 96
2020-05-05 03:00:00 12.7 3 Oeste 8 Oeste 0 -- -- 94
2020-05-05 02:00:00 13.2 0 Calma 4 Sur 0 -- -- 94
2020-05-05 01:00:00 13.5 0 Calma 4 Oeste 0 -- -- 92
2020-05-05 00:00:00 14.5 2 Sur 5 Sur 0 -- -- 87
2020-05-04 23:00:00 16.6 0 Calma 12 Este 0 -- -- 79
2020-05-04 22:00:00 18.2 6 Oeste 41 Oeste 0 -- -- 72
2020-05-04 21:00:00 21.1 28 Noroeste 58 Oeste 0 -- -- 64
2020-05-04 20:00:00 29.7 9 Sudoeste 33 Oeste 0 -- -- 37
2020-05-04 19:00:00 30 4 Este 14 Este 0 -- -- 48
2020-05-04 18:00:00 32.5 6 Este 26 Nordeste 0 -- -- 39
2020-05-04 17:00:00 32.2 9 Nordeste 38 Nordeste 0 -- -- 42
2020-05-04 16:00:00 29.8 12 Este 31 Sudeste 0 -- -- 46
2020-05-04 15:00:00 28 5 Este 16 Sudeste 0 -- -- 60
2020-05-04 14:00:00 29.3 4 Sudeste 17 Sudeste 0 -- -- 54
2020-05-04 13:00:00 27.6 10 Sur 25 Sudeste 0 -- -- 50
2020-05-04 12:00:00 27.8 4 Este 24 Este 0 -- -- 48
2020-05-04 11:00:00 25.9 6 Este 12 Nordeste 0 -- -- 55
2020-05-04 10:00:00 17.2 4 Oeste 9 Oeste 0 -- -- 94
2020-05-04 09:00:00 13.7 2 Noroeste 5 Oeste 0 -- -- 99
2020-05-04 08:00:00 11.8 0 Calma 5 Sudoeste 0 -- -- 99
2020-05-04 07:00:00 11.1 0 Calma 6 Sudoeste 0 -- -- 98
2020-05-04 06:00:00 11.4 2 Oeste 8 Oeste 0 -- -- 97
2020-05-04 05:00:00 11.9 0 Calma 5 Sudoeste 0 -- -- 97
2020-05-04 04:00:00 12.3 0 Calma 5 Oeste 0 -- -- 97
2020-05-04 03:00:00 12.5 0 Calma 3 Sur 0 -- -- 96
2020-05-04 02:00:00 13.1 0 Calma 4 Oeste 0 -- -- 95
2020-05-04 01:00:00 13.9 0 Calma 6 Oeste 0 -- -- 94
2020-05-04 00:00:00 14.8 0 Calma 3 Noroeste 0 -- -- 93
2020-05-03 23:00:00 16.1 0 Calma 3 Sudoeste 0 -- -- 90
2020-05-03 22:00:00 18.2 0 Calma 8 Este 0 -- -- 83
2020-05-03 21:00:00 21.5 0 Calma 8 Sudeste 0 -- -- 75
2020-05-03 20:00:00 24.4 4 Este 18 Nordeste 0 -- -- 66
2020-05-03 19:00:00 26 7 Este 21 Este 0 -- -- 59
2020-05-03 18:00:00 26.2 9 Este 22 Este 0 -- -- 63
2020-05-03 17:00:00 27.2 8 Este 22 Este 0 -- -- 61
2020-05-03 16:00:00 27.7 6 Este 18 Este 0 -- -- 60
2020-05-03 15:00:00 27.5 6 Este 19 Nordeste 0 -- -- 63
2020-05-03 14:00:00 26.7 8 Este 22 Nordeste 0 -- -- 58
2020-05-03 13:00:00 25.3 6 Nordeste 21 Norte 0 -- -- 56
2020-05-03 12:00:00 23.7 8 Nordeste 15 Nordeste 0 -- -- 58
2020-05-03 11:00:00 20.7 3 Este 7 Este 0 -- -- 73
2020-05-03 10:00:00 15.2 2 Este 5 Sudeste 0 -- -- 96
2020-05-03 09:00:00 12.3 0 Calma 3 Oeste 0 -- -- 99
2020-05-03 08:00:00 11.4 0 Calma 2 Oeste 0 -- -- 99
2020-05-03 07:00:00 11.3 0 Calma 3 Oeste 0 -- -- 98
2020-05-03 06:00:00 11.1 2 Oeste 3 Oeste 0 -- -- 98
2020-05-03 05:00:00 11 0 Calma 2 Oeste 0 -- -- 96
2020-05-03 04:00:00 11.8 0 Calma 2 Oeste 0 -- -- 96
2020-05-03 03:00:00 12.5 0 Calma 3 Oeste 0 -- -- 95
2020-05-03 02:00:00 13.3 0 Calma 2 Oeste 0 -- -- 94
2020-05-03 01:00:00 14.5 0 Calma 4 Oeste 0 -- -- 93
2020-05-03 00:00:00 15.6 0 Calma 3 Oeste 0 -- -- 93
2020-05-02 23:00:00 16 0 Calma 2 Oeste 0 -- -- 92
2020-05-02 22:00:00 16.6 0 Calma 4 Sur 0 -- -- 86
2020-05-02 21:00:00 19.7 0 Calma 8 Sur 0 -- -- 79
2020-05-02 20:00:00 22 0 Calma 5 Nordeste 0 -- -- 74
2020-05-02 19:00:00 22.9 2 Nordeste 10 Nordeste 0 -- -- 65
2020-05-02 18:00:00 22.9 0 Calma 6 Nordeste 0 -- -- 66
2020-05-02 17:00:00 21.7 0 Calma 5 Este 0 -- -- 72
2020-05-02 16:00:00 21.1 4 Nordeste 21 Nordeste 0 -- -- 70
2020-05-02 15:00:00 23.3 9 Este 21 Este 0 -- -- 65
2020-05-02 14:00:00 23.4 7 Este 22 Nordeste 0 -- -- 64
2020-05-02 13:00:00 24.5 5 Este 11 Este 0 -- -- 69
2020-05-02 12:00:00 23.7 6 Nordeste 14 Nordeste 0 -- -- 65
2020-05-02 11:00:00 19.5 2 Nordeste 4 Oeste 0 -- -- 82
2020-05-02 10:00:00 16.3 0 Calma 5 Oeste 0 -- -- 94
2020-05-02 09:00:00 14.6 0 Calma 4 Noroeste 0 -- -- 98
2020-05-02 08:00:00 14.1 3 Sudoeste 6 Oeste 0 -- -- 98
2020-05-02 07:00:00 14.3 0 Calma 5 Oeste 0 -- -- 98
2020-05-02 06:00:00 14.6 0 Calma 3 Noroeste 0 -- -- 98
2020-05-02 05:00:00 14.6 0 Calma 4 Sudeste 0 -- -- 98
2020-05-02 04:00:00 14.3 0 Calma 3 Nordeste 0 -- -- 98
2020-05-02 03:00:00 14.1 0 Calma 3 Noroeste 0 -- -- 97
2020-05-02 02:00:00 14.3 0 Calma 5 Sur 0 -- -- 96
2020-05-02 01:00:00 15.3 0 Calma 5 Oeste 0 -- -- 97
2020-05-02 00:00:00 15.6 0 Calma 5 Oeste 0 -- -- 96